sensor_id;sensor_type;location;lat;lon;timestamp;pressure;altitude;pressure_sealevel;temperature;humidity
4590;BME280;2307;48.448;9.216;2023-03-19T00:00:41;95098.47;;;11.93;59.96
4590;BME280;2307;48.448;9.216;2023-03-19T00:03:07;95099.59;;;11.97;62.07
4590;BME280;2307;48.448;9.216;2023-03-19T00:05:35;95094.91;;;12.04;61.70
4590;BME280;2307;48.448;9.216;2023-03-19T00:08:02;95100.66;;;12.27;61.05
4590;BME280;2307;48.448;9.216;2023-03-19T00:10:28;95103.50;;;12.21;61.43
4590;BME280;2307;48.448;9.216;2023-03-19T00:12:55;95093.91;;;12.10;62.18
4590;BME280;2307;48.448;9.216;2023-03-19T00:15:21;95101.13;;;11.93;61.14
4590;BME280;2307;48.448;9.216;2023-03-19T00:17:47;95100.00;;;11.84;61.58
4590;BME280;2307;48.448;9.216;2023-03-19T00:20:14;95108.06;;;11.99;62.85
4590;BME280;2307;48.448;9.216;2023-03-19T00:22:43;95107.50;;;11.92;61.61
4590;BME280;2307;48.448;9.216;2023-03-19T00:25:09;95102.13;;;11.87;60.78
4590;BME280;2307;48.448;9.216;2023-03-19T00:27:36;95102.91;;;11.82;59.48
4590;BME280;2307;48.448;9.216;2023-03-19T00:30:03;95105.97;;;11.74;60.30
4590;BME280;2307;48.448;9.216;2023-03-19T00:32:29;95105.75;;;11.76;59.83
4590;BME280;2307;48.448;9.216;2023-03-19T00:34:57;95104.06;;;11.69;60.70
4590;BME280;2307;48.448;9.216;2023-03-19T00:37:23;95100.38;;;11.70;60.21
4590;BME280;2307;48.448;9.216;2023-03-19T00:39:51;95099.94;;;11.79;60.29
4590;BME280;2307;48.448;9.216;2023-03-19T00:42:17;95102.78;;;11.99;59.57
4590;BME280;2307;48.448;9.216;2023-03-19T00:44:44;95105.19;;;12.00;58.97
4590;BME280;2307;48.448;9.216;2023-03-19T00:47:10;95109.00;;;11.83;54.69
4590;BME280;2307;48.448;9.216;2023-03-19T00:49:37;95107.19;;;11.88;55.72
4590;BME280;2307;48.448;9.216;2023-03-19T00:52:03;95108.00;;;11.89;57.46
4590;BME280;2307;48.448;9.216;2023-03-19T00:54:29;95112.53;;;11.93;57.57
4590;BME280;2307;48.448;9.216;2023-03-19T00:57:05;95125.69;;;12.15;56.76
4590;BME280;2307;48.448;9.216;2023-03-19T00:59:32;95120.47;;;11.93;53.82
4590;BME280;2307;48.448;9.216;2023-03-19T01:01:58;95123.44;;;12.02;53.08
4590;BME280;2307;48.448;9.216;2023-03-19T01:04:24;95130.25;;;11.93;52.91
4590;BME280;2307;48.448;9.216;2023-03-19T01:06:51;95132.47;;;12.01;54.78
4590;BME280;2307;48.448;9.216;2023-03-19T01:09:17;95136.84;;;12.17;53.01
4590;BME280;2307;48.448;9.216;2023-03-19T01:11:43;95139.13;;;12.35;54.20
4590;BME280;2307;48.448;9.216;2023-03-19T01:14:11;95143.88;;;12.33;53.43
4590;BME280;2307;48.448;9.216;2023-03-19T01:16:38;95145.09;;;12.20;53.52
4590;BME280;2307;48.448;9.216;2023-03-19T01:19:04;95154.25;;;12.08;50.86
4590;BME280;2307;48.448;9.216;2023-03-19T01:21:30;95165.38;;;12.10;49.25
4590;BME280;2307;48.448;9.216;2023-03-19T01:23:58;95156.94;;;12.13;49.86
4590;BME280;2307;48.448;9.216;2023-03-19T01:26:24;95166.59;;;12.02;51.10
4590;BME280;2307;48.448;9.216;2023-03-19T01:28:51;95173.69;;;11.97;50.98
4590;BME280;2307;48.448;9.216;2023-03-19T01:31:19;95173.47;;;11.98;51.81
4590;BME280;2307;48.448;9.216;2023-03-19T01:33:45;95180.16;;;11.84;52.89
4590;BME280;2307;48.448;9.216;2023-03-19T01:36:12;95171.88;;;11.76;52.57
4590;BME280;2307;48.448;9.216;2023-03-19T01:38:38;95173.94;;;11.73;53.16
4590;BME280;2307;48.448;9.216;2023-03-19T01:41:05;95179.00;;;11.75;57.33
4590;BME280;2307;48.448;9.216;2023-03-19T01:43:31;95180.19;;;11.67;60.94
4590;BME280;2307;48.448;9.216;2023-03-19T01:45:59;95179.97;;;11.47;64.99
4590;BME280;2307;48.448;9.216;2023-03-19T01:48:29;95178.06;;;11.26;72.38
4590;BME280;2307;48.448;9.216;2023-03-19T01:50:57;95167.94;;;11.18;78.30
4590;BME280;2307;48.448;9.216;2023-03-19T01:53:25;95166.09;;;11.18;84.24
4590;BME280;2307;48.448;9.216;2023-03-19T01:55:54;95166.28;;;10.95;87.88
4590;BME280;2307;48.448;9.216;2023-03-19T01:58:22;95177.03;;;10.89;92.25
4590;BME280;2307;48.448;9.216;2023-03-19T02:00:48;95169.09;;;10.89;92.56
4590;BME280;2307;48.448;9.216;2023-03-19T02:03:15;95172.88;;;10.93;94.28
4590;BME280;2307;48.448;9.216;2023-03-19T02:05:43;95174.47;;;10.94;92.13
4590;BME280;2307;48.448;9.216;2023-03-19T02:08:10;95166.13;;;11.02;90.78
4590;BME280;2307;48.448;9.216;2023-03-19T02:10:39;95177.97;;;11.16;89.69
4590;BME280;2307;48.448;9.216;2023-03-19T02:13:06;95188.53;;;11.16;92.94
4590;BME280;2307;48.448;9.216;2023-03-19T02:15:32;95190.94;;;11.17;98.06
4590;BME280;2307;48.448;9.216;2023-03-19T02:17:59;95187.72;;;11.15;100.00
4590;BME280;2307;48.448;9.216;2023-03-19T02:20:26;95189.91;;;11.02;100.00
4590;BME280;2307;48.448;9.216;2023-03-19T02:22:59;95196.72;;;10.98;100.00
4590;BME280;2307;48.448;9.216;2023-03-19T02:25:29;95187.91;;;10.76;100.00
4590;BME280;2307;48.448;9.216;2023-03-19T02:27:58;95198.97;;;10.73;100.00
4590;BME280;2307;48.448;9.216;2023-03-19T02:30:28;95203.28;;;10.62;100.00
4590;BME280;2307;48.448;9.216;2023-03-19T02:32:55;95198.09;;;10.22;100.00
4590;BME280;2307;48.448;9.216;2023-03-19T02:35:21;95194.28;;;10.01;100.00
4590;BME280;2307;48.448;9.216;2023-03-19T02:37:47;95197.22;;;10.17;100.00
4590;BME280;2307;48.448;9.216;2023-03-19T02:40:15;95184.25;;;10.15;100.00
4590;BME280;2307;48.448;9.216;2023-03-19T02:42:44;95174.53;;;10.04;100.00
4590;BME280;2307;48.448;9.216;2023-03-19T02:45:11;95171.63;;;10.17;100.00
4590;BME280;2307;48.448;9.216;2023-03-19T02:47:38;95185.03;;;9.87;100.00
4590;BME280;2307;48.448;9.216;2023-03-19T02:50:05;95186.56;;;9.72;100.00
4590;BME280;2307;48.448;9.216;2023-03-19T02:52:31;95191.34;;;9.46;100.00
4590;BME280;2307;48.448;9.216;2023-03-19T02:54:58;95182.50;;;9.52;100.00
4590;BME280;2307;48.448;9.216;2023-03-19T02:57:24;95181.81;;;9.45;100.00
4590;BME280;2307;48.448;9.216;2023-03-19T02:59:51;95188.66;;;9.58;100.00
4590;BME280;2307;48.448;9.216;2023-03-19T03:02:19;95183.91;;;9.43;100.00
4590;BME280;2307;48.448;9.216;2023-03-19T03:04:45;95186.84;;;9.58;100.00
4590;BME280;2307;48.448;9.216;2023-03-19T03:07:12;95178.94;;;9.58;100.00
4590;BME280;2307;48.448;9.216;2023-03-19T03:09:38;95185.47;;;9.56;100.00
4590;BME280;2307;48.448;9.216;2023-03-19T03:12:05;95178.47;;;9.61;100.00
4590;BME280;2307;48.448;9.216;2023-03-19T03:14:31;95186.56;;;9.72;100.00
4590;BME280;2307;48.448;9.216;2023-03-19T03:16:57;95188.84;;;9.80;100.00
4590;BME280;2307;48.448;9.216;2023-03-19T03:19:25;95183.41;;;9.86;100.00
4590;BME280;2307;48.448;9.216;2023-03-19T03:21:52;95188.53;;;9.76;100.00
4590;BME280;2307;48.448;9.216;2023-03-19T03:24:18;95186.56;;;9.72;100.00
4590;BME280;2307;48.448;9.216;2023-03-19T03:26:45;95187.59;;;9.82;100.00
4590;BME280;2307;48.448;9.216;2023-03-19T03:29:11;95189.22;;;10.00;100.00
4590;BME280;2307;48.448;9.216;2023-03-19T03:31:38;95192.44;;;10.02;100.00
4590;BME280;2307;48.448;9.216;2023-03-19T03:34:04;95190.44;;;10.09;100.00
4590;BME280;2307;48.448;9.216;2023-03-19T03:36:32;95195.38;;;10.05;100.00
4590;BME280;2307;48.448;9.216;2023-03-19T03:38:58;95191.88;;;10.00;100.00
4590;BME280;2307;48.448;9.216;2023-03-19T03:41:25;95192.28;;;9.80;100.00
4590;BME280;2307;48.448;9.216;2023-03-19T03:43:51;95194.81;;;9.75;100.00
4590;BME280;2307;48.448;9.216;2023-03-19T03:46:18;95203.47;;;9.59;100.00
4590;BME280;2307;48.448;9.216;2023-03-19T03:48:44;95203.34;;;9.66;100.00
4590;BME280;2307;48.448;9.216;2023-03-19T03:51:13;95195.84;;;9.74;100.00
4590;BME280;2307;48.448;9.216;2023-03-19T03:53:41;95198.94;;;9.83;100.00
4590;BME280;2307;48.448;9.216;2023-03-19T03:56:07;95201.19;;;9.91;100.00
4590;BME280;2307;48.448;9.216;2023-03-19T03:58:33;95206.81;;;9.94;100.00
4590;BME280;2307;48.448;9.216;2023-03-19T04:01:00;95205.63;;;10.02;100.00
4590;BME280;2307;48.448;9.216;2023-03-19T04:03:26;95207.13;;;9.98;100.00
4590;BME280;2307;48.448;9.216;2023-03-19T04:05:52;95207.94;;;9.98;100.00
4590;BME280;2307;48.448;9.216;2023-03-19T04:08:19;95210.44;;;10.05;100.00
4590;BME280;2307;48.448;9.216;2023-03-19T04:10:47;95212.81;;;10.18;96.41
4590;BME280;2307;48.448;9.216;2023-03-19T04:13:13;95213.47;;;10.25;100.00
4590;BME280;2307;48.448;9.216;2023-03-19T04:15:40;95224.50;;;10.22;100.00
4590;BME280;2307;48.448;9.216;2023-03-19T04:18:07;95224.03;;;10.25;94.71
4590;BME280;2307;48.448;9.216;2023-03-19T04:20:33;95207.38;;;10.25;92.15
4590;BME280;2307;48.448;9.216;2023-03-19T04:22:59;95218.75;;;10.25;92.66
4590;BME280;2307;48.448;9.216;2023-03-19T04:25:26;95220.34;;;10.26;93.82
4590;BME280;2307;48.448;9.216;2023-03-19T04:27:55;95224.59;;;10.27;92.04
4590;BME280;2307;48.448;9.216;2023-03-19T04:30:22;95228.63;;;10.18;100.00
4590;BME280;2307;48.448;9.216;2023-03-19T04:32:48;95226.00;;;10.18;100.00
4590;BME280;2307;48.448;9.216;2023-03-19T04:35:14;95226.72;;;10.13;100.00
4590;BME280;2307;48.448;9.216;2023-03-19T04:37:42;95225.22;;;10.06;100.00
4590;BME280;2307;48.448;9.216;2023-03-19T04:40:12;95224.00;;;9.97;100.00
4590;BME280;2307;48.448;9.216;2023-03-19T04:42:39;95229.56;;;10.12;100.00
4590;BME280;2307;48.448;9.216;2023-03-19T04:45:07;95225.00;;;10.07;100.00
4590;BME280;2307;48.448;9.216;2023-03-19T04:47:34;95228.25;;;9.98;100.00
4590;BME280;2307;48.448;9.216;2023-03-19T04:50:00;95229.56;;;10.12;100.00
4590;BME280;2307;48.448;9.216;2023-03-19T04:52:26;95220.50;;;10.20;100.00
4590;BME280;2307;48.448;9.216;2023-03-19T04:54:54;95223.06;;;10.31;100.00
4590;BME280;2307;48.448;9.216;2023-03-19T04:57:20;95240.19;;;10.29;100.00
4590;BME280;2307;48.448;9.216;2023-03-19T04:59:48;95242.41;;;10.08;100.00
4590;BME280;2307;48.448;9.216;2023-03-19T05:02:16;95236.50;;;9.90;100.00
4590;BME280;2307;48.448;9.216;2023-03-19T05:04:43;95237.25;;;9.74;100.00
4590;BME280;2307;48.448;9.216;2023-03-19T05:07:09;95238.28;;;9.73;100.00
4590;BME280;2307;48.448;9.216;2023-03-19T05:09:36;95243.56;;;9.73;100.00
4590;BME280;2307;48.448;9.216;2023-03-19T05:12:02;95246.34;;;9.66;100.00
4590;BME280;2307;48.448;9.216;2023-03-19T05:14:29;95247.47;;;9.58;100.00
4590;BME280;2307;48.448;9.216;2023-03-19T05:16:55;95250.13;;;9.58;100.00
4590;BME280;2307;48.448;9.216;2023-03-19T05:19:23;95250.59;;;9.67;100.00
4590;BME280;2307;48.448;9.216;2023-03-19T05:21:49;95253.53;;;9.71;100.00
4590;BME280;2307;48.448;9.216;2023-03-19T05:24:16;95260.41;;;9.72;100.00
4590;BME280;2307;48.448;9.216;2023-03-19T05:26:42;95252.72;;;9.82;100.00
4590;BME280;2307;48.448;9.216;2023-03-19T05:29:08;95248.47;;;9.81;100.00
4590;BME280;2307;48.448;9.216;2023-03-19T05:31:36;95256.97;;;9.83;100.00
4590;BME280;2307;48.448;9.216;2023-03-19T05:34:02;95246.88;;;9.80;100.00
4590;BME280;2307;48.448;9.216;2023-03-19T05:36:30;95255.22;;;9.77;100.00
4590;BME280;2307;48.448;9.216;2023-03-19T05:38:56;95253.06;;;9.74;100.00
4590;BME280;2307;48.448;9.216;2023-03-19T05:41:23;95256.75;;;9.73;100.00
4590;BME280;2307;48.448;9.216;2023-03-19T05:43:49;95261.09;;;9.79;100.00
4590;BME280;2307;48.448;9.216;2023-03-19T05:46:16;95255.44;;;9.87;100.00
4590;BME280;2307;48.448;9.216;2023-03-19T05:48:42;95254.88;;;9.85;100.00
4590;BME280;2307;48.448;9.216;2023-03-19T05:51:08;95250.75;;;9.89;100.00
4590;BME280;2307;48.448;9.216;2023-03-19T05:53:37;95256.03;;;9.89;100.00
4590;BME280;2307;48.448;9.216;2023-03-19T05:56:03;95262.00;;;9.84;100.00
4590;BME280;2307;48.448;9.216;2023-03-19T05:58:30;95269.00;;;9.79;100.00
4590;BME280;2307;48.448;9.216;2023-03-19T06:00:56;95264.41;;;9.74;100.00
4590;BME280;2307;48.448;9.216;2023-03-19T06:03:23;95266.03;;;9.75;100.00
4590;BME280;2307;48.448;9.216;2023-03-19T06:05:50;95270.72;;;9.85;100.00
4590;BME280;2307;48.448;9.216;2023-03-19T06:08:17;95279.09;;;9.82;100.00
4590;BME280;2307;48.448;9.216;2023-03-19T06:10:45;95283.81;;;9.80;100.00
4590;BME280;2307;48.448;9.216;2023-03-19T06:13:12;95281.59;;;9.77;100.00
4590;BME280;2307;48.448;9.216;2023-03-19T06:15:38;95276.47;;;9.82;100.00
4590;BME280;2307;48.448;9.216;2023-03-19T06:18:04;95285.06;;;9.77;100.00
4590;BME280;2307;48.448;9.216;2023-03-19T06:20:31;95285.16;;;9.82;100.00
4590;BME280;2307;48.448;9.216;2023-03-19T06:22:57;95286.44;;;9.80;100.00
4590;BME280;2307;48.448;9.216;2023-03-19T06:25:24;95292.03;;;9.83;100.00
4590;BME280;2307;48.448;9.216;2023-03-19T06:27:52;95284.94;;;9.84;100.00
4590;BME280;2307;48.448;9.216;2023-03-19T06:30:18;95292.38;;;9.87;100.00
4590;BME280;2307;48.448;9.216;2023-03-19T06:32:45;95290.88;;;9.91;100.00
4590;BME280;2307;48.448;9.216;2023-03-19T06:35:11;95293.94;;;9.99;100.00
4590;BME280;2307;48.448;9.216;2023-03-19T06:37:38;95296.94;;;10.03;100.00
4590;BME280;2307;48.448;9.216;2023-03-19T06:40:04;95301.53;;;10.07;100.00
4590;BME280;2307;48.448;9.216;2023-03-19T06:42:31;95303.25;;;10.13;100.00
4590;BME280;2307;48.448;9.216;2023-03-19T06:44:59;95303.00;;;10.15;100.00
4590;BME280;2307;48.448;9.216;2023-03-19T06:47:25;95301.53;;;10.07;100.00
4590;BME280;2307;48.448;9.216;2023-03-19T06:49:51;95299.56;;;10.03;100.00
4590;BME280;2307;48.448;9.216;2023-03-19T06:52:18;95302.47;;;10.01;100.00
4590;BME280;2307;48.448;9.216;2023-03-19T06:54:44;95301.75;;;10.06;100.00
4590;BME280;2307;48.448;9.216;2023-03-19T06:57:11;95308.97;;;9.99;100.00
4590;BME280;2307;48.448;9.216;2023-03-19T06:59:37;95303.56;;;10.05;100.00
4590;BME280;2307;48.448;9.216;2023-03-19T07:02:05;95299.78;;;10.13;100.00
4590;BME280;2307;48.448;9.216;2023-03-19T07:04:31;95296.00;;;10.09;100.00
4590;BME280;2307;48.448;9.216;2023-03-19T07:06:57;95295.78;;;10.10;100.00
4590;BME280;2307;48.448;9.216;2023-03-19T07:09:28;95292.88;;;10.12;100.00
4590;BME280;2307;48.448;9.216;2023-03-19T07:11:54;95292.88;;;10.12;100.00
4590;BME280;2307;48.448;9.216;2023-03-19T07:14:22;95290.41;;;10.17;100.00
4590;BME280;2307;48.448;9.216;2023-03-19T07:16:48;95287.38;;;10.25;100.00
4590;BME280;2307;48.448;9.216;2023-03-19T07:19:16;95288.38;;;10.36;100.00
4590;BME280;2307;48.448;9.216;2023-03-19T07:21:42;95291.91;;;10.41;100.00
4590;BME280;2307;48.448;9.216;2023-03-19T07:24:09;95296.91;;;10.54;100.00
4590;BME280;2307;48.448;9.216;2023-03-19T07:26:35;95301.22;;;10.60;100.00
4590;BME280;2307;48.448;9.216;2023-03-19T07:29:02;95294.81;;;10.56;100.00
4590;BME280;2307;48.448;9.216;2023-03-19T07:31:28;95306.03;;;10.63;100.00
4590;BME280;2307;48.448;9.216;2023-03-19T07:33:54;95299.63;;;10.59;100.00
4590;BME280;2307;48.448;9.216;2023-03-19T07:36:22;95301.22;;;10.60;100.00
4590;BME280;2307;48.448;9.216;2023-03-19T07:38:48;95310.84;;;10.66;100.00
4590;BME280;2307;48.448;9.216;2023-03-19T07:41:15;95310.69;;;10.73;100.00
4590;BME280;2307;48.448;9.216;2023-03-19T07:43:41;95306.56;;;10.77;100.00
4590;BME280;2307;48.448;9.216;2023-03-19T07:46:08;95302.34;;;10.93;100.00
4590;BME280;2307;48.448;9.216;2023-03-19T07:48:34;95297.94;;;10.98;100.00
4590;BME280;2307;48.448;9.216;2023-03-19T07:51:00;95303.22;;;10.98;100.00
4590;BME280;2307;48.448;9.216;2023-03-19T07:53:28;95306.25;;;11.07;100.00
4590;BME280;2307;48.448;9.216;2023-03-19T07:55:55;95306.25;;;11.07;100.00
4590;BME280;2307;48.448;9.216;2023-03-19T07:58:21;95309.06;;;11.00;100.00
4590;BME280;2307;48.448;9.216;2023-03-19T08:00:48;95311.41;;;10.97;100.00
4590;BME280;2307;48.448;9.216;2023-03-19T08:03:15;95311.06;;;10.93;100.00
4590;BME280;2307;48.448;9.216;2023-03-19T08:05:41;95307.78;;;11.03;100.00
4590;BME280;2307;48.448;9.216;2023-03-19T08:08:07;95306.34;;;11.12;100.00
4590;BME280;2307;48.448;9.216;2023-03-19T08:10:35;95311.06;;;11.10;100.00
4590;BME280;2307;48.448;9.216;2023-03-19T08:13:01;95308.69;;;11.25;100.00
4590;BME280;2307;48.448;9.216;2023-03-19T08:15:29;95308.53;;;11.32;100.00
4590;BME280;2307;48.448;9.216;2023-03-19T08:17:58;95313.22;;;11.46;96.87
4590;BME280;2307;48.448;9.216;2023-03-19T08:20:25;95317.50;;;11.47;100.00
4590;BME280;2307;48.448;9.216;2023-03-19T08:22:51;95316.03;;;11.56;100.00
4590;BME280;2307;48.448;9.216;2023-03-19T08:25:17;95319.38;;;11.68;97.48
4590;BME280;2307;48.448;9.216;2023-03-19T08:27:45;95309.94;;;11.73;96.69
4590;BME280;2307;48.448;9.216;2023-03-19T08:30:12;95314.25;;;11.79;97.59
4590;BME280;2307;48.448;9.216;2023-03-19T08:32:38;95314.09;;;11.68;97.13
4590;BME280;2307;48.448;9.216;2023-03-19T08:35:05;95313.06;;;11.69;98.67
4590;BME280;2307;48.448;9.216;2023-03-19T08:37:32;95311.53;;;11.73;100.00
4590;BME280;2307;48.448;9.216;2023-03-19T08:39:58;95311.34;;;11.80;99.34
4590;BME280;2307;48.448;9.216;2023-03-19T08:42:25;95313.44;;;11.95;98.95
4590;BME280;2307;48.448;9.216;2023-03-19T08:44:53;95312.19;;;12.02;100.00
4590;BME280;2307;48.448;9.216;2023-03-19T08:47:19;95305.41;;;12.11;97.10
4590;BME280;2307;48.448;9.216;2023-03-19T08:49:48;95316.41;;;12.20;96.42
4590;BME280;2307;48.448;9.216;2023-03-19T08:52:15;95316.44;;;12.25;96.04
4590;BME280;2307;48.448;9.216;2023-03-19T08:54:41;95318.28;;;12.24;93.84
4590;BME280;2307;48.448;9.216;2023-03-19T08:57:08;95319.84;;;12.20;94.28
4590;BME280;2307;48.448;9.216;2023-03-19T08:59:34;95325.50;;;12.29;90.03
4590;BME280;2307;48.448;9.216;2023-03-19T09:02:02;95315.75;;;12.35;89.12
4590;BME280;2307;48.448;9.216;2023-03-19T09:04:29;95316.72;;;12.50;88.90
4590;BME280;2307;48.448;9.216;2023-03-19T09:07:00;95319.84;;;12.42;85.37
4590;BME280;2307;48.448;9.216;2023-03-19T09:09:27;95326.78;;;12.48;83.09
4590;BME280;2307;48.448;9.216;2023-03-19T09:11:53;95332.00;;;12.43;84.03
4590;BME280;2307;48.448;9.216;2023-03-19T09:14:19;95323.41;;;12.31;85.94
4590;BME280;2307;48.448;9.216;2023-03-19T09:16:47;95329.31;;;12.38;85.06
4590;BME280;2307;48.448;9.216;2023-03-19T09:19:15;95330.16;;;12.44;85.06
4590;BME280;2307;48.448;9.216;2023-03-19T09:21:41;95326.72;;;12.43;81.31
4590;BME280;2307;48.448;9.216;2023-03-19T09:24:08;95323.03;;;12.44;78.79
4590;BME280;2307;48.448;9.216;2023-03-19T09:26:35;95329.66;;;12.47;80.70
4590;BME280;2307;48.448;9.216;2023-03-19T09:29:02;95328.41;;;12.49;81.24
4590;BME280;2307;48.448;9.216;2023-03-19T09:31:29;95328.41;;;12.49;78.94
4590;BME280;2307;48.448;9.216;2023-03-19T09:33:55;95328.75;;;12.58;80.70
4590;BME280;2307;48.448;9.216;2023-03-19T09:36:23;95332.28;;;12.68;81.59
4590;BME280;2307;48.448;9.216;2023-03-19T09:38:50;95335.06;;;12.78;79.56
4590;BME280;2307;48.448;9.216;2023-03-19T09:41:18;95330.88;;;12.83;80.05
4590;BME280;2307;48.448;9.216;2023-03-19T09:43:55;95329.88;;;12.89;77.93
4590;BME280;2307;48.448;9.216;2023-03-19T09:46:25;95336.97;;;13.10;77.88
4590;BME280;2307;48.448;9.216;2023-03-19T09:48:53;95331.47;;;13.16;77.55
4590;BME280;2307;48.448;9.216;2023-03-19T09:51:25;95330.19;;;13.19;76.32
4590;BME280;2307;48.448;9.216;2023-03-19T09:53:55;95328.16;;;13.31;75.42
4590;BME280;2307;48.448;9.216;2023-03-19T09:56:23;95326.09;;;13.38;75.37
4590;BME280;2307;48.448;9.216;2023-03-19T09:58:49;95327.75;;;13.44;72.32
4590;BME280;2307;48.448;9.216;2023-03-19T10:01:20;95318.63;;;13.35;70.50
4590;BME280;2307;48.448;9.216;2023-03-19T10:03:51;95326.44;;;13.47;73.70
4590;BME280;2307;48.448;9.216;2023-03-19T10:06:27;95316.66;;;13.57;72.92
4590;BME280;2307;48.448;9.216;2023-03-19T10:09:01;95320.19;;;13.63;73.58
4590;BME280;2307;48.448;9.216;2023-03-19T10:11:33;95314.22;;;13.82;73.08
4590;BME280;2307;48.448;9.216;2023-03-19T10:14:06;95308.31;;;13.75;73.04
4590;BME280;2307;48.448;9.216;2023-03-19T10:16:36;95313.72;;;13.96;73.45
4590;BME280;2307;48.448;9.216;2023-03-19T10:19:05;95306.38;;;14.08;69.53
4590;BME280;2307;48.448;9.216;2023-03-19T10:21:33;95305.34;;;14.14;68.41
4590;BME280;2307;48.448;9.216;2023-03-19T10:24:04;95302.19;;;14.22;65.99
4590;BME280;2307;48.448;9.216;2023-03-19T10:26:33;95297.44;;;14.29;65.63
4590;BME280;2307;48.448;9.216;2023-03-19T10:29:03;95294.84;;;14.49;66.33
4590;BME280;2307;48.448;9.216;2023-03-19T10:31:39;95291.72;;;14.62;63.46
4590;BME280;2307;48.448;9.216;2023-03-19T10:34:13;95286.44;;;14.67;64.38
4590;BME280;2307;48.448;9.216;2023-03-19T10:36:45;95286.66;;;14.66;62.71
4590;BME280;2307;48.448;9.216;2023-03-19T10:39:12;95283.53;;;15.04;63.49
4590;BME280;2307;48.448;9.216;2023-03-19T10:41:43;95285.69;;;15.17;61.31
4590;BME280;2307;48.448;9.216;2023-03-19T10:44:15;95278.50;;;15.48;58.73
4590;BME280;2307;48.448;9.216;2023-03-19T10:46:42;95278.50;;;15.48;54.60
4590;BME280;2307;48.448;9.216;2023-03-19T10:49:12;95281.97;;;15.43;53.53
4590;BME280;2307;48.448;9.216;2023-03-19T10:51:41;95283.53;;;15.44;52.56
4590;BME280;2307;48.448;9.216;2023-03-19T10:54:22;95280.38;;;15.53;53.41
4590;BME280;2307;48.448;9.216;2023-03-19T10:56:49;95272.34;;;15.73;50.87
4590;BME280;2307;48.448;9.216;2023-03-19T10:59:20;95278.47;;;15.78;50.76
4590;BME280;2307;48.448;9.216;2023-03-19T11:01:47;95272.66;;;15.61;50.19
4590;BME280;2307;48.448;9.216;2023-03-19T11:04:15;95284.63;;;15.69;49.72
4590;BME280;2307;48.448;9.216;2023-03-19T11:06:43;95286.13;;;16.05;49.19
4590;BME280;2307;48.448;9.216;2023-03-19T11:09:16;95281.22;;;16.37;49.18
4590;BME280;2307;48.448;9.216;2023-03-19T11:11:46;95283.88;;;16.42;48.83
4590;BME280;2307;48.448;9.216;2023-03-19T11:14:14;95283.47;;;16.74;46.77
4590;BME280;2307;48.448;9.216;2023-03-19T11:17:02;95285.03;;;16.80;46.58
4590;BME280;2307;48.448;9.216;2023-03-19T11:19:32;95290.22;;;16.57;45.76
4590;BME280;2307;48.448;9.216;2023-03-19T11:22:00;95296.09;;;16.43;46.06
4590;BME280;2307;48.448;9.216;2023-03-19T11:24:30;95293.19;;;16.45;45.61
4590;BME280;2307;48.448;9.216;2023-03-19T11:26:58;95284.94;;;16.41;45.81
4590;BME280;2307;48.448;9.216;2023-03-19T11:29:27;95281.50;;;16.31;46.33
4590;BME280;2307;48.448;9.216;2023-03-19T11:31:56;95285.06;;;16.06;46.53
4590;BME280;2307;48.448;9.216;2023-03-19T11:34:30;95280.53;;;16.02;46.35
4590;BME280;2307;48.448;9.216;2023-03-19T11:37:01;95280.25;;;16.08;47.20
4590;BME280;2307;48.448;9.216;2023-03-19T11:39:33;95278.34;;;16.19;47.21
4590;BME280;2307;48.448;9.216;2023-03-19T11:42:08;95277.19;;;16.45;48.03
4590;BME280;2307;48.448;9.216;2023-03-19T11:44:38;95275.28;;;16.61;46.95
4590;BME280;2307;48.448;9.216;2023-03-19T11:47:11;95279.00;;;16.60;47.74
4590;BME280;2307;48.448;9.216;2023-03-19T11:49:45;95267.97;;;16.76;47.13
4590;BME280;2307;48.448;9.216;2023-03-19T11:52:15;95275.53;;;16.49;48.31
4590;BME280;2307;48.448;9.216;2023-03-19T11:54:47;95270.75;;;16.56;47.38
4590;BME280;2307;48.448;9.216;2023-03-19T11:57:18;95273.00;;;16.29;47.82
4590;BME280;2307;48.448;9.216;2023-03-19T11:59:54;95260.19;;;16.36;47.53
4590;BME280;2307;48.448;9.216;2023-03-19T12:02:35;95270.22;;;16.54;47.16
4590;BME280;2307;48.448;9.216;2023-03-19T12:05:08;95262.78;;;16.46;46.56
4590;BME280;2307;48.448;9.216;2023-03-19T12:07:43;95259.59;;;16.44;47.67
4590;BME280;2307;48.448;9.216;2023-03-19T12:10:25;95257.41;;;16.56;47.15
4590;BME280;2307;48.448;9.216;2023-03-19T12:12:55;95257.88;;;16.68;46.89
4590;BME280;2307;48.448;9.216;2023-03-19T12:15:23;95264.88;;;16.59;46.45
4590;BME280;2307;48.448;9.216;2023-03-19T12:17:56;95258.22;;;16.52;47.02
4590;BME280;2307;48.448;9.216;2023-03-19T12:20:26;95255.88;;;16.45;47.48
4590;BME280;2307;48.448;9.216;2023-03-19T12:23:04;95258.63;;;16.25;47.17
4590;BME280;2307;48.448;9.216;2023-03-19T12:25:35;95249.81;;;16.24;47.21
4590;BME280;2307;48.448;9.216;2023-03-19T12:28:09;95255.00;;;15.90;48.40
4590;BME280;2307;48.448;9.216;2023-03-19T12:30:40;95257.38;;;15.92;46.54
4590;BME280;2307;48.448;9.216;2023-03-19T12:33:09;95251.28;;;15.86;47.86
4590;BME280;2307;48.448;9.216;2023-03-19T12:35:36;95257.72;;;15.75;48.36
4590;BME280;2307;48.448;9.216;2023-03-19T12:38:04;95260.38;;;15.70;47.35
4590;BME280;2307;48.448;9.216;2023-03-19T12:40:36;95255.59;;;15.67;48.39
4590;BME280;2307;48.448;9.216;2023-03-19T12:43:07;95245.50;;;15.54;49.93
4590;BME280;2307;48.448;9.216;2023-03-19T12:45:41;95251.09;;;15.58;50.68
4590;BME280;2307;48.448;9.216;2023-03-19T12:48:10;95259.88;;;15.63;50.05
4590;BME280;2307;48.448;9.216;2023-03-19T12:50:39;95246.84;;;15.52;50.02
4590;BME280;2307;48.448;9.216;2023-03-19T12:53:09;95241.75;;;15.65;49.77
4590;BME280;2307;48.448;9.216;2023-03-19T12:55:38;95248.44;;;15.53;50.71
4590;BME280;2307;48.448;9.216;2023-03-19T12:58:08;95236.72;;;15.38;50.44
4590;BME280;2307;48.448;9.216;2023-03-19T13:00:38;95242.84;;;15.49;49.31
4590;BME280;2307;48.448;9.216;2023-03-19T13:03:10;95243.88;;;15.68;49.55
4590;BME280;2307;48.448;9.216;2023-03-19T13:05:40;95240.41;;;15.68;50.37
4590;BME280;2307;48.448;9.216;2023-03-19T13:08:09;95239.63;;;15.67;50.53
4590;BME280;2307;48.448;9.216;2023-03-19T13:10:38;95236.44;;;15.65;50.71
4590;BME280;2307;48.448;9.216;2023-03-19T13:13:19;95230.59;;;15.63;50.93
4590;BME280;2307;48.448;9.216;2023-03-19T13:15:48;95230.03;;;15.61;51.27
4590;BME280;2307;48.448;9.216;2023-03-19T13:18:20;95232.19;;;15.59;51.96
4590;BME280;2307;48.448;9.216;2023-03-19T13:20:53;95230.88;;;15.57;52.29
4590;BME280;2307;48.448;9.216;2023-03-19T13:23:23;95228.44;;;15.45;52.92